M I D A S
Marine Information and Data Acquisition System
Tripno 61 of the Zeeleeuw from 2001-08-29 06:08:12 to 2001-08-29 16:50:04
Back to CruiseResearch ActivitiesStationsMapUnderway DataData graphs

EquipmentUnitsComment
TimeDGPSUTC
LatitudeDGPSDM.mWGS84
LongitudeDGPSDM.mWGS84
HeadingGyrodeg 
SOGDGPSknotsSpeed over ground
COGDGPSdegCourse over ground
DepthEcho soundermeters200 kHz
Missing or incorrect values are displayed as -999
Navigation data collected by the RV Zeeleeuw from 2001-08-29 06:08:12 to 2001-08-29 16:50:04
                                                                                    Next 1000 lines
Time Latitude Longitude Heading SOG COG Depth
2001-08-29 06:08:22 51°13.675 2°55.939 0.7 0.1 122.5 -999
2001-08-29 06:08:27 51°13.676 2°55.931 0.8   128.3 -999
2001-08-29 06:08:32 51°13.676 2°55.929 0.8   172.3 -999
2001-08-29 06:08:37 51°13.676 2°55.929 0.8   299.7 -999
2001-08-29 06:08:42 51°13.676 2°55.928 1   281.6 -999
2001-08-29 06:08:47 51°13.676 2°55.928 1   62.8 -999
2001-08-29 06:08:52 51°13.676 2°55.927 1   96.1 -999
2001-08-29 06:08:57 51°13.676 2°55.926 1   84.8 -999
2001-08-29 06:09:02 51°13.676 2°55.926 1.2   350.6 -999
2001-08-29 06:09:07 51°13.676 2°55.925 1.2   299.4 -999
2001-08-29 06:09:12 51°13.676 2°55.924 1.2   314.5 -999
2001-08-29 06:09:17 51°13.676 2°55.924 1   343.8 -999
2001-08-29 06:09:22 51°13.676 2°55.924 0.7   34.5 -999
2001-08-29 06:09:27 51°13.676 2°55.924 0.3   37.4 -999
2001-08-29 06:09:32 51°13.677 2°55.924     26.6 -999
2001-08-29 06:09:37 51°13.677 2°55.925 359.7   28.2 -999
2001-08-29 06:09:42 51°13.677 2°55.925 359.5   35.3 -999
2001-08-29 06:09:47 51°13.677 2°55.925 359.3   349 -999
2001-08-29 06:09:52 51°13.677 2°55.925 359.2   205.5 -999
2001-08-29 06:09:57 51°13.677 2°55.925 359.2   236.2 -999
2001-08-29 06:10:02 51°13.677 2°55.925 359.3   231.9 -999
2001-08-29 06:10:07 51°13.677 2°55.924 359.3   128.4 -999
2001-08-29 06:10:12 51°13.677 2°55.924 359.2   78.7 -999
2001-08-29 06:10:17 51°13.677 2°55.924 359.3   50.4 -999
2001-08-29 06:10:22 51°13.677 2°55.924 359.3   26.1 -999
2001-08-29 06:10:27 51°13.677 2°55.924 359.5   13.1 -999
2001-08-29 06:10:32 51°13.677 2°55.924 359.5   260 -999
2001-08-29 06:10:37 51°13.677 2°55.924 359.7   228.1 -999
2001-08-29 06:10:42 51°13.677 2°55.924 359.7   198.4 -999
2001-08-29 06:10:47 51°13.677 2°55.924 359.8   208.9 -999
2001-08-29 06:10:52 51°13.677 2°55.924 359.8   200.2 -999
2001-08-29 06:10:57 51°13.677 2°55.924     9.5 -999
2001-08-29 06:11:02 51°13.677 2°55.924     49.8 -999
2001-08-29 06:11:07 51°13.677 2°55.924 0.2   39.6 -999
2001-08-29 06:11:12 51°13.677 2°55.924 0.2   285.6 -999
2001-08-29 06:11:17 51°13.677 2°55.924 0.3   230.6 -999
2001-08-29 06:11:22 51°13.677 2°55.923 0.3   221.3 -999
2001-08-29 06:11:27 51°13.677 2°55.923 0.3   37.8 -999
2001-08-29 06:11:32 51°13.677 2°55.923 0.3   344.4 -999
2001-08-29 06:11:37 51°13.677 2°55.923 0.2   318.9 -999
2001-08-29 06:11:42 51°13.677 2°55.923 0.2   313.8 -999
2001-08-29 06:11:47 51°13.677 2°55.923 0.2   30.9 -999
2001-08-29 06:11:52 51°13.677 2°55.923     26.6 -999
2001-08-29 06:11:57 51°13.677 2°55.923     57.1 -999
2001-08-29 06:12:02 51°13.677 2°55.923     74.5 -999
2001-08-29 06:12:07 51°13.677 2°55.923 0.2   349.5 -999
2001-08-29 06:12:12 51°13.677 2°55.923 0.2   356.3 -999
2001-08-29 06:12:17 51°13.677 2°55.923 0.3   32.7 -999
2001-08-29 06:12:22 51°13.677 2°55.923 0.3   84.3 -999
2001-08-29 06:12:27 51°13.677 2°55.923 0.5   129.8 -999
2001-08-29 06:12:32 51°13.677 2°55.923 0.5   200.7 -999
2001-08-29 06:12:37 51°13.677 2°55.923 0.5   262.4 -999
2001-08-29 06:12:42 51°13.677 2°55.923 0.7   297.7 -999
2001-08-29 06:12:47 51°13.677 2°55.923 0.7   297.3 -999
2001-08-29 06:12:52 51°13.677 2°55.923 0.7   312.2 -999
2001-08-29 06:12:57 51°13.677 2°55.923 0.7   153.1 -999
2001-08-29 06:13:02 51°13.677 2°55.923 0.7   174.4 -999
2001-08-29 06:13:07 51°13.677 2°55.923 0.5   52.8 -999
2001-08-29 06:13:12 51°13.677 2°55.923 0.5   17.9 -999
2001-08-29 06:13:17 51°13.677 2°55.923 0.5   10.2 -999
2001-08-29 06:13:22 51°13.677 2°55.923 0.5   348.7 -999
2001-08-29 06:13:27 51°13.677 2°55.923 0.5   106.1 -999
2001-08-29 06:13:32 51°13.677 2°55.923 0.3   23.3 -999
2001-08-29 06:13:37 51°13.678 2°55.923 0.3   352.4 -999
2001-08-29 06:13:42 51°13.678 2°55.923 0.2   13.6 -999
2001-08-29 06:13:47 51°13.678 2°55.923     25.4 -999
2001-08-29 06:13:52 51°13.678 2°55.923 359.8   32.7 -999
2001-08-29 06:13:57 51°13.678 2°55.923 359.7   50.2 -999
2001-08-29 06:14:02 51°13.678 2°55.923 359.5   23.4 -999
2001-08-29 06:14:07 51°13.678 2°55.923 359.3   21.3 -999
2001-08-29 06:14:12 51°13.678 2°55.922 359.2   327.2 -999
2001-08-29 06:14:17 51°13.678 2°55.923 359.3   31.4 -999
2001-08-29 06:14:22 51°13.678 2°55.922 359.3   352.4 -999
2001-08-29 06:14:27 51°13.678 2°55.922 359.3   320.9 -999
2001-08-29 06:14:32 51°13.678 2°55.923 359.3   328.3 -999
2001-08-29 06:14:37 51°13.678 2°55.923 359.3   74.2 -999
2001-08-29 06:14:42 51°13.678 2°55.923 359.3   46.7 -999
2001-08-29 06:14:47 51°13.678 2°55.923 359.3   338.2 -999
2001-08-29 06:14:52 51°13.678 2°55.923 359.5   326.6 -999
2001-08-29 06:14:57 51°13.678 2°55.923 359.5   347.9 -999
2001-08-29 06:15:02 51°13.678 2°55.922 359.7   318.8 -999
2001-08-29 06:15:07 51°13.678 2°55.922 359.7   270 -999
2001-08-29 06:15:12 51°13.678 2°55.922 359.8   170.4 -999
2001-08-29 06:15:17 51°13.678 2°55.922 359.8   102.4 -999
2001-08-29 06:15:22 51°13.678 2°55.922 359.8   100.6 -999
2001-08-29 06:15:27 51°13.678 2°55.922 359.8   104 -999
2001-08-29 06:15:32 51°13.678 2°55.922     258.8 -999
2001-08-29 06:15:37 51°13.678 2°55.922     259.6 -999
2001-08-29 06:15:42 51°13.678 2°55.922 0.2   250.3 -999
2001-08-29 06:15:47 51°13.678 2°55.922 0.5   245.7 -999
2001-08-29 06:15:52 51°13.678 2°55.922 0.7   246.7 -999
2001-08-29 06:15:57 51°13.678 2°55.922 0.8   217.5 -999
2001-08-29 06:16:02 51°13.678 2°55.922 0.8   53.9 -999
2001-08-29 06:16:07 51°13.678 2°55.922 0.8   355.2 -999
2001-08-29 06:16:12 51°13.678 2°55.922 0.8   355.9 -999
2001-08-29 06:16:17 51°13.678 2°55.922 0.8   354.1 -999
2001-08-29 06:16:22 51°13.678 2°55.922 0.7   332.4 -999
2001-08-29 06:16:27 51°13.678 2°55.922 0.7   317.5 -999
2001-08-29 06:16:32 51°13.678 2°55.922 0.8   326 -999
2001-08-29 06:16:37 51°13.678 2°55.922 0.7   333.6 -999
2001-08-29 06:16:42 51°13.678 2°55.922 0.7   6.3 -999
2001-08-29 06:16:47 51°13.678 2°55.922 0.5   31.6 -999
2001-08-29 06:16:52 51°13.678 2°55.922 0.5   28.5 -999
2001-08-29 06:16:57 51°13.678 2°55.922 0.5   340.4 -999
2001-08-29 06:17:02 51°13.678 2°55.922 0.5   321.6 -999
2001-08-29 06:17:07 51°13.678 2°55.922 0.7   305 -999
2001-08-29 06:17:12 51°13.678 2°55.922 0.7   317 -999
2001-08-29 06:17:17 51°13.678 2°55.922 0.7   347 -999
2001-08-29 06:17:22 51°13.678 2°55.922 0.7   63.2 -999
2001-08-29 06:17:27 51°13.677 2°55.922 0.7   78.5 -999
2001-08-29 06:17:32 51°13.677 2°55.922 0.7   87.1 -999
2001-08-29 06:17:37 51°13.677 2°55.922 0.8   294.8 -999
2001-08-29 06:17:42 51°13.677 2°55.922 0.8   311.8 -999
2001-08-29 06:17:47 51°13.677 2°55.922 1   321.5 -999
2001-08-29 06:17:52 51°13.677 2°55.922 1   291.2 -999
2001-08-29 06:17:57 51°13.677 2°55.922 1   292.3 -999
2001-08-29 06:18:02 51°13.677 2°55.922 1   320.8 -999
2001-08-29 06:18:07 51°13.678 2°55.922 0.8   26.6 -999
2001-08-29 06:18:12 51°13.678 2°55.922 0.8   6.1 -999
2001-08-29 06:18:17 51°13.678 2°55.922 0.8   346.1 -999
2001-08-29 06:18:22 51°13.677 2°55.922 0.8   326.5 -999
2001-08-29 06:18:27 51°13.677 2°55.922 0.7   340.9 -999
2001-08-29 06:18:32 51°13.677 2°55.922 0.7   14.5 -999
2001-08-29 06:18:37 51°13.677 2°55.922 0.5   33.4 -999
2001-08-29 06:18:42 51°13.677 2°55.922 0.5   336.1 -999
2001-08-29 06:18:47 51°13.677 2°55.922 0.3   345.8 -999
2001-08-29 06:18:52 51°13.677 2°55.922 0.3   349.7 -999
2001-08-29 06:18:57 51°13.677 2°55.922 0.3   357.6 -999
2001-08-29 06:19:02 51°13.677 2°55.922 0.2   329.4 -999
2001-08-29 06:19:07 51°13.677 2°55.922 0.2   312.2 -999
2001-08-29 06:19:12 51°13.677 2°55.922 0.2   306 -999
2001-08-29 06:19:17 51°13.677 2°55.922 0.2   330.5 -999
2001-08-29 06:19:22 51°13.677 2°55.922 0.2   33.9 -999
2001-08-29 06:19:27 51°13.677 2°55.922     182.3 -999
2001-08-29 06:19:32 51°13.677 2°55.922     230.1 -999
2001-08-29 06:19:37 51°13.677 2°55.922 0.2   290.8 -999
2001-08-29 06:19:42 51°13.677 2°55.922 0.3   299.1 -999
2001-08-29 06:19:47 51°13.677 2°55.922 0.5   329 -999
2001-08-29 06:19:52 51°13.677 2°55.922 0.7   333.7 -999
2001-08-29 06:19:57 51°13.677 2°55.922 0.8   251.1 -999
2001-08-29 06:20:02 51°13.677 2°55.922 0.8   288 -999
2001-08-29 06:20:07 51°13.677 2°55.922 0.8   4.9 -999
2001-08-29 06:20:12 51°13.677 2°55.922 0.8   355.3 -999
2001-08-29 06:20:17 51°13.677 2°55.922 0.7   357.4 -999
2001-08-29 06:20:22 51°13.677 2°55.922 0.7   25.8 -999
2001-08-29 06:20:27 51°13.677 2°55.922 0.5   15.7 -999
2001-08-29 06:20:32 51°13.677 2°55.922 0.3   17.4 -999
2001-08-29 06:20:37 51°13.677 2°55.922 0.3   10 -999
2001-08-29 06:20:42 51°13.677 2°55.922 0.2   2.3 -999
2001-08-29 06:20:47 51°13.677 2°55.922     343.2 -999
2001-08-29 06:20:52 51°13.677 2°55.922     339.2 -999
2001-08-29 06:20:57 51°13.677 2°55.922 359.8   0.2 -999
2001-08-29 06:21:02 51°13.677 2°55.922 359.7   34.5 -999
2001-08-29 06:21:07 51°13.677 2°55.922 359.7   45 -999
2001-08-29 06:21:12 51°13.677 2°55.922 359.5   25.6 -999
2001-08-29 06:21:17 51°13.677 2°55.922 359.7   334.5 -999
2001-08-29 06:21:22 51°13.677 2°55.922 359.8   351.7 -999
2001-08-29 06:21:27 51°13.677 2°55.922 359.8   347.9 -999
2001-08-29 06:21:32 51°13.677 2°55.922     334.8 -999
2001-08-29 06:21:37 51°13.677 2°55.922     312.4 -999
2001-08-29 06:21:42 51°13.677 2°55.922 0.2   47.9 -999
2001-08-29 06:21:47 51°13.677 2°55.922 0.2   111.4 -999
2001-08-29 06:21:52 51°13.677 2°55.922 0.2   144.7 -999
2001-08-29 06:21:57 51°13.677 2°55.922 0.2   237.8 -999
2001-08-29 06:22:02 51°13.677 2°55.922 0.3   267.2 -999
2001-08-29 06:22:07 51°13.677 2°55.922 0.3   298.4 -999
2001-08-29 06:22:12 51°13.677 2°55.922 0.5   331.2 -999
2001-08-29 06:22:17 51°13.677 2°55.922 0.5   304.2 -999
2001-08-29 06:22:22 51°13.677 2°55.922 0.7   328.3 -999
2001-08-29 06:22:27 51°13.677 2°55.922 0.7   4.5 -999
2001-08-29 06:22:32 51°13.677 2°55.922 0.7   344.2 -999
2001-08-29 06:22:37 51°13.677 2°55.922 0.5   355.4 -999
2001-08-29 06:22:42 51°13.677 2°55.922 0.5   7.9 -999
2001-08-29 06:22:47 51°13.677 2°55.922 0.5   312.8 -999
2001-08-29 06:22:52 51°13.677 2°55.922 0.7   311.1 -999
2001-08-29 06:22:57 51°13.677 2°55.922 0.7   318.3 -999
2001-08-29 06:23:02 51°13.677 2°55.922 0.7   315.2 -999
2001-08-29 06:23:07 51°13.677 2°55.922 0.8   315 -999
2001-08-29 06:23:12 51°13.677 2°55.922 0.8   314.1 -999
2001-08-29 06:23:17 51°13.677 2°55.922 0.8   307.1 -999
2001-08-29 06:23:22 51°13.677 2°55.922 0.8   302.7 -999
2001-08-29 06:23:27 51°13.676 2°55.922 0.8   307.4 -999
2001-08-29 06:23:32 51°13.676 2°55.922 0.8   327.8 -999
2001-08-29 06:23:37 51°13.676 2°55.923 0.7   4.2 -999
2001-08-29 06:23:42 51°13.676 2°55.923 0.7   16 -999
2001-08-29 06:23:47 51°13.676 2°55.923 0.7   26.4 -999
2001-08-29 06:23:52 51°13.676 2°55.922 0.5   358.2 -999
2001-08-29 06:23:57 51°13.676 2°55.922 0.5   329.8 -999
2001-08-29 06:24:02 51°13.676 2°55.922 0.5   336.7 -999
2001-08-29 06:24:07 51°13.676 2°55.922 0.5   346 -999
2001-08-29 06:24:12 51°13.676 2°55.922 0.7   304.2 -999
2001-08-29 06:24:17 51°13.676 2°55.922 0.7   219 -999
2001-08-29 06:24:22 51°13.676 2°55.922 0.7   136.1 -999
2001-08-29 06:24:27 51°13.676 2°55.923 0.7   56.7 -999
2001-08-29 06:24:32 51°13.676 2°55.922 0.7   10 -999
2001-08-29 06:24:37 51°13.676 2°55.922 0.8   302 -999
2001-08-29 06:24:42 51°13.676 2°55.922 0.8   286.3 -999
2001-08-29 06:24:47 51°13.676 2°55.922 0.8   288.3 -999
2001-08-29 06:24:52 51°13.676 2°55.922 0.8   310.1 -999
2001-08-29 06:24:57 51°13.676 2°55.923 0.8   287.9 -999
2001-08-29 06:25:02 51°13.676 2°55.923 0.7   3.3 -999
2001-08-29 06:25:07 51°13.676 2°55.923 0.7   354.8 -999
2001-08-29 06:25:12 51°13.676 2°55.923 0.5   358.8 -999
2001-08-29 06:25:17 51°13.676 2°55.923 0.5   350.1 -999
2001-08-29 06:25:22 51°13.676 2°55.923 0.5   337.1 -999
2001-08-29 06:25:27 51°13.676 2°55.923 0.3   351.6 -999
2001-08-29 06:25:32 51°13.676 2°55.923 0.3   350.2 -999
2001-08-29 06:25:37 51°13.676 2°55.923 0.2   353 -999
2001-08-29 06:25:52 51°13.676 2°55.923 359.8   24.8 -999
2001-08-29 06:25:57 51°13.676 2°55.923 359.8   312.8 -999
2001-08-29 06:26:02 51°13.676 2°55.923     294.1 -999
2001-08-29 06:26:07 51°13.676 2°55.922 0.2   294 -999
2001-08-29 06:26:12 51°13.676 2°55.922 0.2   292.9 -999
2001-08-29 06:26:17 51°13.676 2°55.922 0.2   314.5 -999
2001-08-29 06:26:22 51°13.676 2°55.922     20.5 -999
2001-08-29 06:26:47 51°13.677 2°55.922 9.3   303.9 -999
2001-08-29 06:26:51 51°13.677 2°55.922 36.3   324.9 -999
2001-08-29 06:26:56 51°13.677 2°55.922 60.3   342.2 -999
2001-08-29 06:27:00 51°13.677 2°55.922 85.3   17.4 -999
2001-08-29 06:27:05 51°13.677 2°55.922 126.2   30.8 -999
2001-08-29 06:27:09 51°13.677 2°55.922 132.2   33.2 -999
2001-08-29 06:27:13 51°13.677 2°55.922 132   27.4 -999
2001-08-29 06:27:19 51°13.677 2°55.922 131.8   347.4 -999
2001-08-29 06:27:25 51°13.677 2°55.922 131.8   346.5 -999
2001-08-29 06:27:31 51°13.677 2°55.922 131.7   8.7 -999
2001-08-29 06:27:37 51°13.677 2°55.922 131.5   36.5 -999
2001-08-29 06:27:42 51°13.677 2°55.922 131.2   77.6 -999
2001-08-29 06:27:47 51°13.677 2°55.922 131.2   123.3 -999
2001-08-29 06:27:52 51°13.677 2°55.922 131.2   270.5 -999
2001-08-29 06:27:57 51°13.677 2°55.922 131.3   305.5 -999
2001-08-29 06:28:02 51°13.677 2°55.922 131.5   275.1 -999
2001-08-29 06:28:07 51°13.677 2°55.922 131.7   270.2 -999
2001-08-29 06:28:12 51°13.677 2°55.922 131.8   133.6 -999
2001-08-29 06:28:17 51°13.677 2°55.923 132   126.4 -999
2001-08-29 06:28:22 51°13.677 2°55.923 132.2   234.4 -999
2001-08-29 06:28:27 51°13.677 2°55.922 132.5   259.6 -999
2001-08-29 06:28:32 51°13.677 2°55.922 132.7   246.7 -999
2001-08-29 06:28:37 51°13.677 2°55.922 132.8   253.1 -999
2001-08-29 06:28:42 51°13.677 2°55.922 133   283.6 -999
2001-08-29 06:28:47 51°13.677 2°55.922 132.8   306.5 -999
2001-08-29 06:28:52 51°13.677 2°55.922 132.8   28.3 -999
2001-08-29 06:28:57 51°13.677 2°55.922 132.7   36.4 -999
2001-08-29 06:29:02 51°13.677 2°55.923 132.5   33.6 -999
2001-08-29 06:29:07 51°13.677 2°55.923 132.5   24.4 -999
2001-08-29 06:29:12 51°13.677 2°55.923 132.5   7.6 -999
2001-08-29 06:29:17 51°13.677 2°55.923 132.5   328.1 -999
2001-08-29 06:29:22 51°13.677 2°55.922 132.5   317.2 -999
2001-08-29 06:29:27 51°13.677 2°55.922 132.3   309.3 -999
2001-08-29 06:29:32 51°13.677 2°55.922 132.3   318.4 -999
2001-08-29 06:29:37 51°13.677 2°55.922 132.2   355.5 -999
2001-08-29 06:29:42 51°13.677 2°55.922 132   32.6 -999
2001-08-29 06:29:47 51°13.677 2°55.922 132   29.8 -999
2001-08-29 06:29:52 51°13.677 2°55.923 132   23.1 -999
2001-08-29 06:29:57 51°13.677 2°55.922 132   355.2 -999
2001-08-29 06:30:02 51°13.677 2°55.922 132   343.4 -999
2001-08-29 06:30:07 51°13.677 2°55.922 131.8   330.5 -999
2001-08-29 06:30:12 51°13.677 2°55.922 131.8   26 -999
2001-08-29 06:30:17 51°13.677 2°55.922 132   102 -999
2001-08-29 06:30:22 51°13.677 2°55.922 132.2   212 -999
2001-08-29 06:30:27 51°13.677 2°55.922 132.3   254.2 -999
2001-08-29 06:30:32 51°13.677 2°55.922 132.7   273.9 -999
2001-08-29 06:30:37 51°13.677 2°55.922 132.8   275.1 -999
2001-08-29 06:30:42 51°13.677 2°55.922 133   278.3 -999
2001-08-29 06:30:47 51°13.677 2°55.922 133.2   198.1 -999
2001-08-29 06:30:52 51°13.677 2°55.922 133.2   99.6 -999
2001-08-29 06:30:57 51°13.677 2°55.922 133.2   91.4 -999
2001-08-29 06:31:02 51°13.677 2°55.922 133.3   302.7 -999
2001-08-29 06:31:07 51°13.677 2°55.922 133.3   275.3 -999
2001-08-29 06:31:12 51°13.677 2°55.922 133.3   290.4 -999
2001-08-29 06:31:17 51°13.677 2°55.922 133.2   300 -999
2001-08-29 06:31:22 51°13.677 2°55.922 133.2   27.5 -999
2001-08-29 06:31:27 51°13.677 2°55.922 133   30.8 -999
2001-08-29 06:31:32 51°13.677 2°55.922 133   293.6 -999
2001-08-29 06:31:45 51°13.677 2°55.922 359.8   249.4 -999
2001-08-29 06:31:50 51°13.677 2°55.922 359.8   267.9 -999
2001-08-29 06:31:55 51°13.677 2°55.922 359.8   265.1 -999
2001-08-29 06:32:12 51°13.677 2°55.922 359.8   9.3 -999
2001-08-29 06:32:17 51°13.677 2°55.922 359.8   27.1 -999
2001-08-29 06:32:22 51°13.677 2°55.922     4.3 -999
2001-08-29 06:32:27 51°13.677 2°55.922 0.2   339.2 -999
2001-08-29 06:32:32 51°13.677 2°55.922 0.3   289.3 -999
2001-08-29 06:32:49 51°13.677 2°55.922 0.3   289.4 -999
2001-08-29 06:32:54 51°13.677 2°55.922 0.3   294.9 -999
2001-08-29 06:32:59 51°13.676 2°55.922 0.3   353.5 -999
2001-08-29 06:33:04 51°13.676 2°55.922 0.2   20.5 -999
2001-08-29 06:33:09 51°13.676 2°55.922 0.2   353.7 -999
2001-08-29 06:33:14 51°13.676 2°55.922 0.2   319.9 -999
2001-08-29 06:33:19 51°13.676 2°55.922 0.2   307.8 -999
2001-08-29 06:33:44 51°13.677 2°55.922 0.2   337.7 -999
2001-08-29 06:33:49 51°13.677 2°55.922     2.6 -999
2001-08-29 06:33:54 51°13.677 2°55.922     0.8 -999
2001-08-29 06:33:59 51°13.677 2°55.922     316.1 -999
2001-08-29 06:34:04 51°13.677 2°55.922 0.2   316.4 -999
2001-08-29 06:34:09 51°13.677 2°55.922 0.2   343.6 -999
2001-08-29 06:34:14 51°13.677 2°55.922 0.2   28.3 -999
2001-08-29 06:34:19 51°13.677 2°55.922 0.2   47.3 -999
2001-08-29 06:34:24 51°13.677 2°55.922 0.3   25.4 -999
2001-08-29 06:34:29 51°13.677 2°55.922 0.3   350.3 -999
2001-08-29 06:34:34 51°13.677 2°55.922 0.5   329.6 -999
2001-08-29 06:34:39 51°13.677 2°55.922 0.7   313 -999
2001-08-29 06:34:44 51°13.677 2°55.922 0.8   327.1 -999
2001-08-29 06:34:49 51°13.677 2°55.922 0.8   43.7 -999
2001-08-29 06:34:54 51°13.677 2°55.922 1   65 -999
2001-08-29 06:34:59 51°13.677 2°55.922 1   40 -999
2001-08-29 06:35:04 51°13.677 2°55.922 1   357.4 -999
2001-08-29 06:35:09 51°13.677 2°55.922 1   305.7 -999
2001-08-29 06:35:14 51°13.677 2°55.922 0.8   309.5 -999
2001-08-29 06:35:19 51°13.677 2°55.922 0.8   324.6 -999
2001-08-29 06:35:24 51°13.677 2°55.922 0.7   347.7 -999
2001-08-29 06:35:29 51°13.677 2°55.922 0.7   18.7 -999
2001-08-29 06:35:34 51°13.677 2°55.922 0.5   25.5 -999
2001-08-29 06:35:39 51°13.677 2°55.922 0.3   3.3 -999
2001-08-29 06:35:44 51°13.677 2°55.922 0.3   338.3 -999
2001-08-29 06:35:49 51°13.677 2°55.922 0.2   336.7 -999
2001-08-29 06:35:54 51°13.677 2°55.922 0.2   346.5 -999
2001-08-29 06:35:59 51°13.677 2°55.922     90.9 -999
2001-08-29 06:36:04 51°13.677 2°55.922 359.8   116.1 -999
2001-08-29 06:36:09 51°13.677 2°55.922     252.3 -999
2001-08-29 06:36:14 51°13.677 2°55.922 0.2   263.3 -999
2001-08-29 06:36:19 51°13.677 2°55.922 0.3   240.7 -999
2001-08-29 06:36:24 51°13.677 2°55.922 0.3   146.9 -999
2001-08-29 06:36:29 51°13.677 2°55.922 0.5   137.3 -999
2001-08-29 06:36:34 51°13.677 2°55.922 0.8   249.9 -999
2001-08-29 06:36:39 51°13.677 2°55.922 1.2   270.2 -999
2001-08-29 06:36:44 51°13.677 2°55.922 1.3   104 -999
2001-08-29 06:36:49 51°13.677 2°55.922 1.5   100.3 -999
2001-08-29 06:36:54 51°13.677 2°55.922 1.7   104.9 -999
2001-08-29 06:36:59 51°13.677 2°55.922 1.7   324.6 -999
2001-08-29 06:37:04 51°13.677 2°55.922 1.7   326.4 -999
2001-08-29 06:37:09 51°13.677 2°55.922 1.7   324.2 -999
2001-08-29 06:37:14 51°13.677 2°55.922 1.7   306 -999
2001-08-29 06:37:19 51°13.677 2°55.922 1.5   346.7 -999
2001-08-29 06:37:24 51°13.677 2°55.922 1.5   19 -999
2001-08-29 06:37:29 51°13.677 2°55.922 1.5   21.7 -999
2001-08-29 06:37:34 51°13.677 2°55.922 1.3   31.4 -999
2001-08-29 06:37:39 51°13.677 2°55.922 1.3   17.5 -999
2001-08-29 06:37:44 51°13.677 2°55.922 1.2   15.4 -999
2001-08-29 06:37:49 51°13.677 2°55.922 1.2   29.4 -999
2001-08-29 06:37:54 51°13.677 2°55.922 1.3   326.9 -999
2001-08-29 06:37:59 51°13.677 2°55.922 1.3   318.6 -999
2001-08-29 06:38:04 51°13.677 2°55.922 1.3   320.5 -999
2001-08-29 06:38:09 51°13.677 2°55.922 1.3   343.1 -999
2001-08-29 06:38:14 51°13.677 2°55.922 1.3   320.8 -999
2001-08-29 06:38:19 51°13.677 2°55.922 1.3   70.4 -999
2001-08-29 06:38:24 51°13.677 2°55.922 1.5   51.9 -999
2001-08-29 06:38:29 51°13.677 2°55.922 1.5   304.5 -999
2001-08-29 06:38:34 51°13.677 2°55.922 1.7   286.2 -999
2001-08-29 06:38:39 51°13.677 2°55.922 1.8   294.5 -999
2001-08-29 06:38:44 51°13.677 2°55.922 2   340.7 -999
2001-08-29 06:38:49 51°13.677 2°55.922 2   110.7 -999
2001-08-29 06:38:54 51°13.677 2°55.922 2   192.8 -999
2001-08-29 06:38:59 51°13.677 2°55.922 2   295.2 -999
2001-08-29 06:39:04 51°13.677 2°55.922 2.2   318.4 -999
2001-08-29 06:39:09 51°13.677 2°55.922 2.3   323.2 -999
2001-08-29 06:39:14 51°13.677 2°55.922 2.3   331.4 -999
2001-08-29 06:39:19 51°13.677 2°55.922 2.2   352.9 -999
2001-08-29 06:39:24 51°13.677 2°55.922 2.2   11.7 -999
2001-08-29 06:39:29 51°13.677 2°55.922 2   24.7 -999
2001-08-29 06:39:34 51°13.677 2°55.922 1.8   36.8 -999
2001-08-29 06:39:39 51°13.677 2°55.922 1.7   40.5 -999
2001-08-29 06:39:44 51°13.677 2°55.922 1.5   19.6 -999
2001-08-29 06:39:49 51°13.677 2°55.922 1.3   348.2 -999
2001-08-29 06:39:54 51°13.677 2°55.922 1.3   344.1 -999
2001-08-29 06:39:59 51°13.677 2°55.922 1.2   335.4 -999
2001-08-29 06:40:04 51°13.677 2°55.922 1.2   1.2 -999
2001-08-29 06:40:09 51°13.677 2°55.922 1   25.5 -999
2001-08-29 06:40:14 51°13.677 2°55.922 1   39.5 -999
2001-08-29 06:40:19 51°13.677 2°55.922 0.8   59.9 -999
2001-08-29 06:40:24 51°13.677 2°55.922 1   42.4 -999
2001-08-29 06:40:29 51°13.677 2°55.922 1   4 -999
2001-08-29 06:40:34 51°13.677 2°55.922 1.2   331.1 -999
2001-08-29 06:40:39 51°13.677 2°55.922 1.3   324.9 -999
2001-08-29 06:40:44 51°13.677 2°55.922 1.5   100.7 -999
2001-08-29 06:40:49 51°13.677 2°55.922 1.5   86.7 -999
2001-08-29 06:40:54 51°13.677 2°55.922 1.7   193.1 -999
2001-08-29 06:40:59 51°13.677 2°55.922 1.8   266.5 -999
2001-08-29 06:41:04 51°13.677 2°55.921 2   288.9 -999
2001-08-29 06:41:09 51°13.677 2°55.921 2.3   315.2 -999
2001-08-29 06:41:14 51°13.677 2°55.921 2.3   352.5 -999
2001-08-29 06:41:19 51°13.677 2°55.921 2.5   79 -999
2001-08-29 06:41:24 51°13.677 2°55.921 2.5   138.6 -999
2001-08-29 06:41:29 51°13.677 2°55.921 2.7   99 -999
2001-08-29 06:41:34 51°13.677 2°55.921 2.7   290.5 -999
2001-08-29 06:41:39 51°13.677 2°55.921 2.8   311.4 -999
2001-08-29 06:41:44 51°13.677 2°55.922 2.8   310.5 -999
2001-08-29 06:41:49 51°13.677 2°55.922 2.8   341.3 -999
2001-08-29 06:41:54 51°13.677 2°55.922 2.7   16.2 -999
2001-08-29 06:41:59 51°13.677 2°55.922 2.5   33.8 -999
2001-08-29 06:42:04 51°13.677 2°55.922 2.3   37.3 -999
2001-08-29 06:42:09 51°13.677 2°55.922 2.2   30.4 -999
2001-08-29 06:42:14 51°13.677 2°55.922 2   4.8 -999
2001-08-29 06:42:19 51°13.677 2°55.922 2   354.5 -999
2001-08-29 06:42:24 51°13.677 2°55.922 1.8   343.1 -999
2001-08-29 06:42:29 51°13.677 2°55.922 1.7   343.9 -999
2001-08-29 06:42:34 51°13.677 2°55.922 1.5   8.7 -999
2001-08-29 06:42:39 51°13.677 2°55.922 1.3   48.4 -999
2001-08-29 06:42:44 51°13.677 2°55.922 1.3   289.5 -999
2001-08-29 06:42:49 51°13.677 2°55.922 1.5   254.5 -999
2001-08-29 06:42:54 51°13.677 2°55.922 1.7   341 -999
2001-08-29 06:42:59 51°13.677 2°55.922 1.7   39 -999
2001-08-29 06:43:04 51°13.677 2°55.922 1.7   56.7 -999
2001-08-29 06:43:09 51°13.677 2°55.922 1.8   59.8 -999
2001-08-29 06:43:14 51°13.677 2°55.922 1.8   102.9 -999
2001-08-29 06:43:19 51°13.677 2°55.922 2   356.5 -999
2001-08-29 06:43:24 51°13.677 2°55.922 2   331.9 -999
2001-08-29 06:43:29 51°13.677 2°55.922 2.2   350.9 -999
2001-08-29 06:43:34 51°13.677 2°55.922 2.2   343.4 -999
2001-08-29 06:43:39 51°13.677 2°55.922 2.3   27.8 -999
2001-08-29 06:43:44 51°13.677 2°55.922 2.3   35.2 -999
2001-08-29 06:43:49 51°13.677 2°55.922 2.3   28.2 -999
2001-08-29 06:43:54 51°13.677 2°55.922 2.5   12.8 -999
2001-08-29 06:43:59 51°13.677 2°55.922 2.3   341.6 -999
2001-08-29 06:44:04 51°13.677 2°55.922 2.3   349.8 -999
2001-08-29 06:44:09 51°13.677 2°55.922 2.3   329.9 -999
2001-08-29 06:44:14 51°13.677 2°55.922 2.3   315.2 -999
2001-08-29 06:44:19 51°13.677 2°55.922 2.3   320.4 -999
2001-08-29 06:44:24 51°13.677 2°55.922 2.3   351.6 -999
2001-08-29 06:44:29 51°13.677 2°55.922 2.2   44.8 -999
2001-08-29 06:44:34 51°13.677 2°55.922 2.2   74.6 -999
2001-08-29 06:44:39 51°13.677 2°55.922 2.3   88.2 -999
2001-08-29 06:44:44 51°13.677 2°55.922 2.5   284.8 -999
2001-08-29 06:44:49 51°13.677 2°55.922 2.7   296.6 -999
2001-08-29 06:44:54 51°13.677 2°55.922 2.8   298.2 -999
2001-08-29 06:44:59 51°13.677 2°55.922 3   263.1 -999
2001-08-29 06:45:04 51°13.677 2°55.922 3.2   253.6 -999
2001-08-29 06:45:09 51°13.677 2°55.922 3.2   134.6 -999
2001-08-29 06:45:14 51°13.677 2°55.922 3.3   127.6 -999
2001-08-29 06:45:19 51°13.677 2°55.922 3.5   86.5 -999
2001-08-29 06:45:24 51°13.677 2°55.922 3.7   283.7 -999
2001-08-29 06:45:29 51°13.677 2°55.922 4   301.8 -999
2001-08-29 06:45:34 51°13.677 2°55.922 4   326.3 -999
2001-08-29 06:45:39 51°13.677 2°55.922 3.8   348.5 -999
2001-08-29 06:45:44 51°13.677 2°55.922 3.8   26.1 -999
2001-08-29 06:45:49 51°13.677 2°55.922 3.7   14.7 -999
2001-08-29 06:45:54 51°13.677 2°55.922 3.7   331.1 -999
2001-08-29 06:45:59 51°13.677 2°55.922 3.5   339 -999
2001-08-29 06:46:04 51°13.677 2°55.922 3.5   13 -999
2001-08-29 06:46:09 51°13.677 2°55.922 3.3   28.5 -999
2001-08-29 06:46:14 51°13.677 2°55.922 3.2   26.8 -999
2001-08-29 06:46:19 51°13.677 2°55.922 3   23.8 -999
2001-08-29 06:46:24 51°13.677 2°55.922 2.8   1.8 -999
2001-08-29 06:46:29 51°13.677 2°55.922 2.8   342 -999
2001-08-29 06:46:34 51°13.677 2°55.922 2.8   4.6 -999
2001-08-29 06:46:39 51°13.677 2°55.922 2.8   343.2 -999
2001-08-29 06:46:44 51°13.677 2°55.922 2.8   10.3 -999
2001-08-29 06:46:49 51°13.677 2°55.922 2.8   29.2 -999
2001-08-29 06:46:54 51°13.677 2°55.922 3   26 -999
2001-08-29 06:46:59 51°13.677 2°55.922 3   25.9 -999
2001-08-29 06:47:04 51°13.677 2°55.922 3.2   276.8 -999
2001-08-29 06:47:09 51°13.677 2°55.922 3.3   271 -999
2001-08-29 06:47:14 51°13.677 2°55.922 3.5   248.6 -999
2001-08-29 06:47:19 51°13.677 2°55.922 3.5   251.8 -999
2001-08-29 06:47:24 51°13.677 2°55.922 3.7   280.2 -999
2001-08-29 06:47:29 51°13.677 2°55.922 3.8   357.1 -999
2001-08-29 06:47:34 51°13.677 2°55.922 3.8   337.4 -999
2001-08-29 06:47:39 51°13.677 2°55.922 3.8   305.6 -999
2001-08-29 06:47:44 51°13.677 2°55.922 3.8   36.5 -999
2001-08-29 06:47:49 51°13.677 2°55.922 3.7   18.5 -999
2001-08-29 06:47:54 51°13.677 2°55.922 3.7   345.8 -999
2001-08-29 06:47:59 51°13.677 2°55.922 3.7   336.8 -999
2001-08-29 06:48:04 51°13.677 2°55.922 3.8   3.8 -999
2001-08-29 06:48:09 51°13.677 2°55.922 3.7   16.5 -999
2001-08-29 06:48:14 51°13.677 2°55.922 3.5   8.9 -999
2001-08-29 06:48:19 51°13.677 2°55.922 3.5   353.5 -999
2001-08-29 06:48:24 51°13.677 2°55.922 3.5   13.5 -999
2001-08-29 06:48:29 51°13.677 2°55.922 3.5   345.2 -999
2001-08-29 06:48:34 51°13.677 2°55.922 3.5   326.5 -999
2001-08-29 06:48:39 51°13.677 2°55.922 3.5   320.6 -999
2001-08-29 06:48:44 51°13.677 2°55.922 3.7   345.6 -999
2001-08-29 06:48:49 51°13.677 2°55.922 3.7   3.6 -999
2001-08-29 06:49:03 51°13.677 2°55.922     63.1 -999
2001-08-29 06:49:08 51°13.677 2°55.922     70 -999
2001-08-29 06:49:13 51°13.677 2°55.922     14.7 -999
2001-08-29 06:49:18 51°13.677 2°55.922     323.5 -999
2001-08-29 06:49:23 51°13.677 2°55.922     328 -999
2001-08-29 06:49:28 51°13.677 2°55.922     303.7 -999
2001-08-29 06:49:53 51°13.677 2°55.923     317.8 -999
2001-08-29 06:50:00 51°13.677 2°55.923     295.3 -999
2001-08-29 06:50:05 51°13.677 2°55.923 359.8   330 -999
2001-08-29 06:50:10 51°13.677 2°55.923 359.8   10.1 -999
2001-08-29 06:50:15 51°13.677 2°55.923 359.8   60.2 -999
2001-08-29 06:50:20 51°13.677 2°55.923 359.7   51.3 -999
2001-08-29 06:50:25 51°13.677 2°55.923 359.7   341.1 -999
2001-08-29 06:50:30 51°13.677 2°55.923 359.7   300.1 -999
2001-08-29 06:50:55 51°13.677 2°55.923 359.3   5 -999
2001-08-29 06:51:00 51°13.677 2°55.923 359.2   39.1 -999
2001-08-29 06:51:05 51°13.677 2°55.923 359.2   19.6 -999
2001-08-29 06:51:10 51°13.677 2°55.923 359.2   345.3 -999
2001-08-29 06:51:15 51°13.677 2°55.923 359.2   359.1 -999
2001-08-29 06:51:20 51°13.677 2°55.923 359.2   14 -999
2001-08-29 06:51:25 51°13.677 2°55.923 359.2   38.3 -999
2001-08-29 06:51:30 51°13.677 2°55.923 359.2   38.7 -999
2001-08-29 06:51:35 51°13.677 2°55.923 359.2   23.7 -999
2001-08-29 06:51:40 51°13.677 2°55.922 359.3   336.1 -999
2001-08-29 06:51:45 51°13.677 2°55.922 359.3   359.7 -999
2001-08-29 06:51:50 51°13.677 2°55.922 359.2   35 -999
2001-08-29 06:51:55 51°13.677 2°55.922 359.2   34 -999
2001-08-29 06:52:00 51°13.677 2°55.922 359.2   36.3 -999
2001-08-29 06:52:05 51°13.677 2°55.922 359.2   12.8 -999
2001-08-29 06:52:10 51°13.677 2°55.922 359.2   350.8 -999
2001-08-29 06:52:15 51°13.677 2°55.922 359   3.9 -999
2001-08-29 06:52:20 51°13.677 2°55.922 359   333.3 -999
2001-08-29 06:52:25 51°13.677 2°55.922 359   339.7 -999
2001-08-29 06:52:30 51°13.677 2°55.923 358.8   10.2 -999
2001-08-29 06:52:35 51°13.677 2°55.923 358.8   336.3 -999
2001-08-29 06:52:39 51°13.677 2°55.923 358.8   355.4 -999
2001-08-29 06:52:43 51°13.677 2°55.923 8.3   342.3 -999
2001-08-29 06:52:47 51°13.677 2°55.923 49.3   332.9 -999
2001-08-29 06:52:51 51°13.677 2°55.923 88.3   348.9 -999
2001-08-29 06:52:55 51°13.677 2°55.922 129.3   250.5 -999
2001-08-29 06:53:01 51°13.677 2°55.923 134.2   251.3 -999
2001-08-29 06:53:07 51°13.677 2°55.923 134.2   238.2 -999
2001-08-29 06:53:11 51°13.677 2°55.923 134.3   235.3 -999
2001-08-29 06:53:16 51°13.677 2°55.923 134.3   7.1 -999
2001-08-29 06:53:21 51°13.677 2°55.923 134.5   287.5 -999
2001-08-29 06:53:27 51°13.677 2°55.923 134.7   288.8 -999
2001-08-29 06:53:31 51°13.677 2°55.923 134.8   311.1 -999
2001-08-29 06:53:35 51°13.677 2°55.923 134.8   313 -999
2001-08-29 06:53:41 51°13.677 2°55.923 135   269.5 -999
2001-08-29 06:53:47 51°13.677 2°55.923 135   231 -999
2001-08-29 06:53:51 51°13.677 2°55.923 135   234.1 -999
2001-08-29 06:53:56 51°13.676 2°55.923 135.2   359.5 -999
2001-08-29 06:54:01 51°13.676 2°55.923 135   343.8 -999
2001-08-29 06:54:05 51°13.676 2°55.923 135   349.8 -999
2001-08-29 06:54:11 51°13.676 2°55.923 134.8   8.4 -999
2001-08-29 06:54:17 51°13.676 2°55.923 134.8   25.1 -999
2001-08-29 06:54:21 51°13.676 2°55.923 134.5   33.3 -999
2001-08-29 06:54:27 51°13.676 2°55.923 134.3   20.9 -999
2001-08-29 06:54:31 51°13.676 2°55.923 134.2   351.6 -999
2001-08-29 06:54:36 51°13.676 2°55.923 134   351.7 -999
2001-08-29 06:54:41 51°13.676 2°55.923 133.8   349.6 -999
2001-08-29 06:54:47 51°13.676 2°55.923 133.8   3.9 -999
2001-08-29 06:54:51 51°13.676 2°55.923 133.7   355.7 -999
2001-08-29 06:54:57 51°13.676 2°55.923 133.5   20.5 -999
2001-08-29 06:55:01 51°13.676 2°55.923 133.3   23.6 -999
2001-08-29 06:55:05 51°13.677 2°55.923 133.3   25 -999
2001-08-29 06:55:11 51°13.677 2°55.923 133.5   342.3 -999
2001-08-29 06:55:17 51°13.677 2°55.923 133.5   305.3 -999
2001-08-29 06:55:21 51°13.677 2°55.923 133.7   328.4 -999
2001-08-29 06:55:27 51°13.677 2°55.923 133.7   307.4 -999
2001-08-29 06:55:31 51°13.677 2°55.923 133.7   136.2 -999
2001-08-29 06:55:36 51°13.677 2°55.923 133.7   70.6 -999
2001-08-29 06:55:41 51°13.677 2°55.923 133.8   40.4 -999
2001-08-29 06:55:47 51°13.677 2°55.922 133.8   33.1 -999
2001-08-29 06:55:51 51°13.677 2°55.922 133.8   230.3 -999
2001-08-29 06:55:57 51°13.677 2°55.922 134   311.1 -999
2001-08-29 06:56:01 51°13.677 2°55.922 134.2   3.7 -999
2001-08-29 06:56:07 51°13.677 2°55.922 134.2   354.3 -999
2001-08-29 06:56:11 51°13.677 2°55.922 134.3   305.9 -999
2001-08-29 06:56:16 51°13.677 2°55.922 134.3   318.9 -999
2001-08-29 06:56:21 51°13.677 2°55.922 134.3   91.7 -999
2001-08-29 06:56:27 51°13.676 2°55.922 134.2   68.1 -999
2001-08-29 06:56:31 51°13.676 2°55.922 134.3   77.5 -999
2001-08-29 06:56:36 51°13.676 2°55.923 134.3   17.1 -999
2001-08-29 06:56:41 51°13.676 2°55.922 134.3   354.4 -999
2001-08-29 06:56:46 51°13.676 2°55.922 134.3   335.1 -999
2001-08-29 06:56:51 51°13.676 2°55.922 134.5   315.3 -999
2001-08-29 06:56:56 51°13.676 2°55.923 134.5   326.3 -999
2001-08-29 06:57:01 51°13.676 2°55.923 134.3   147.9 -999
2001-08-29 06:57:05 51°13.676 2°55.923 134.3   146.6 -999
2001-08-29 06:57:11 51°13.676 2°55.923 134.3   173 -999
2001-08-29 06:57:17 51°13.676 2°55.923 134.3   156.1 -999
2001-08-29 06:57:21 51°13.676 2°55.923 134.3   16.5 -999
2001-08-29 06:57:27 51°13.676 2°55.923 134.3   288.1 -999
2001-08-29 06:57:31 51°13.676 2°55.923 134.3   250.4 -999
2001-08-29 06:57:36 51°13.676 2°55.923 134.3   174.1 -999
2001-08-29 06:57:41 51°13.676 2°55.923 134.3   82.2 -999
2001-08-29 06:57:47 51°13.676 2°55.923 134.3   77.8 -999
2001-08-29 06:57:51 51°13.677 2°55.923 134.2   271.9 -999
2001-08-29 06:57:56 51°13.677 2°55.923 134.2   288.9 -999
2001-08-29 06:58:01 51°13.677 2°55.923 134.2   280.6 -999
2001-08-29 06:58:05 51°13.677 2°55.923 134.2   255.8 -999
2001-08-29 06:58:11 51°13.677 2°55.923 134.2   95.6 -999
2001-08-29 06:58:17 51°13.677 2°55.923 134   105.1 -999
2001-08-29 06:58:21 51°13.677 2°55.923 134   74.1 -999
2001-08-29 06:58:27 51°13.677 2°55.923 134.2   309.8 -999
2001-08-29 06:58:31 51°13.677 2°55.923 134.2   270.7 -999
2001-08-29 06:58:36 51°13.677 2°55.923 134.2   291.6 -999
2001-08-29 06:58:41 51°13.677 2°55.923 134.3   30.7 -999
2001-08-29 06:58:47 51°13.677 2°55.923 134.3   48 -999
2001-08-29 06:58:51 51°13.677 2°55.923 134.3   16.5 -999
2001-08-29 06:58:57 51°13.677 2°55.923 134.3   254 -999
2001-08-29 06:59:01 51°13.677 2°55.923 134.2   337.3 -999
2001-08-29 06:59:05 51°13.677 2°55.923 134.2   256.9 -999
2001-08-29 06:59:11 51°13.677 2°55.923 134.2   324.4 -999
2001-08-29 06:59:17 51°13.677 2°55.923 134.2   27.6 -999
2001-08-29 06:59:21 51°13.677 2°55.923 134   21.3 -999
2001-08-29 06:59:27 51°13.677 2°55.923 134   30.6 -999
2001-08-29 06:59:31 51°13.677 2°55.923 133.8   37.7 -999
2001-08-29 06:59:37 51°13.677 2°55.923 133.8   249.5 -999
2001-08-29 06:59:41 51°13.677 2°55.923 133.8   21.8 -999
2001-08-29 06:59:46 51°13.677 2°55.923 133.8   7 -999
2001-08-29 06:59:51 51°13.677 2°55.923 133.8   337.4 -999
2001-08-29 06:59:57 51°13.677 2°55.923 133.8   294.3 -999
2001-08-29 07:00:01 51°13.677 2°55.923 133.8   159.5 -999
2001-08-29 07:00:07 51°13.677 2°55.923 133.8   129.7 -999
2001-08-29 07:00:11 51°13.677 2°55.923 134   254.3 -999
2001-08-29 07:00:16 51°13.677 2°55.923 134 0.1 280.9 -999
2001-08-29 07:00:21 51°13.677 2°55.923 134   348.7 -999
2001-08-29 07:00:27 51°13.677 2°55.923 133.8   74.5 -999
2001-08-29 07:00:31 51°13.677 2°55.923 133.5   67.1 -999
2001-08-29 07:00:36 51°13.677 2°55.923 133.5   9.7 -999
2001-08-29 07:00:41 51°13.677 2°55.923 133.5   7.3 -999
2001-08-29 07:00:47 51°13.677 2°55.923 133.3   27.1 -999
2001-08-29 07:00:51 51°13.677 2°55.923 133.3   57.6 -999
2001-08-29 07:00:56 51°13.677 2°55.923 133.2   66.5 -999
2001-08-29 07:01:01 51°13.677 2°55.923 133.2   49.7 -999
2001-08-29 07:01:05 51°13.677 2°55.923 133.2   343.9 -999
2001-08-29 07:01:11 51°13.677 2°55.923 133.3   315 -999
2001-08-29 07:01:17 51°13.677 2°55.923 133.3   255.7 -999
2001-08-29 07:01:21 51°13.677 2°55.923 133.5   199.1 -999
2001-08-29 07:01:27 51°13.677 2°55.923 133.7   211.8 -999
2001-08-29 07:01:31 51°13.677 2°55.923 133.7   232.3 -999
2001-08-29 07:01:36 51°13.677 2°55.923 133.8   248.9 -999
2001-08-29 07:01:41 51°13.677 2°55.923 133.8   313 -999
2001-08-29 07:01:47 51°13.677 2°55.923 133.7   58.8 -999
2001-08-29 07:01:51 51°13.677 2°55.923 133.7   33.7 -999
2001-08-29 07:01:57 51°13.677 2°55.923 133.7   27 -999
2001-08-29 07:02:01 51°13.677 2°55.923 133.5   9.6 -999
2001-08-29 07:02:07 51°13.677 2°55.923 133.5   336.7 -999
2001-08-29 07:02:11 51°13.677 2°55.923 133.3   336.2 -999
2001-08-29 07:02:17 51°13.677 2°55.923 133.3   355.4 -999
2001-08-29 07:02:21 51°13.677 2°55.923 133.3   22.1 -999
2001-08-29 07:02:27 51°13.677 2°55.923 133.2   321.9 -999
2001-08-29 07:02:31 51°13.677 2°55.923 133.3   269.3 -999
2001-08-29 07:02:37 51°13.677 2°55.923 133.3   251.5 -999
2001-08-29 07:02:41 51°13.677 2°55.923 133.3   221.6 -999
2001-08-29 07:02:47 51°13.677 2°55.923 133.3   224.8 -999
2001-08-29 07:02:51 51°13.677 2°55.923 133.3   227.7 -999
2001-08-29 07:02:57 51°13.677 2°55.923 133.3   181.2 -999
2001-08-29 07:03:01 51°13.677 2°55.923 133.5   158.3 -999
2001-08-29 07:03:07 51°13.677 2°55.923 133.5   83.9 -999
2001-08-29 07:03:11 51°13.677 2°55.923 133.3   59.8 -999
2001-08-29 07:03:16 51°13.677 2°55.923 133.2   62.7 -999
2001-08-29 07:03:21 51°13.677 2°55.923 133   55.2 -999
2001-08-29 07:03:27 51°13.677 2°55.923 133   52.2 -999
2001-08-29 07:03:31 51°13.677 2°55.923 132.8   51.2 -999
2001-08-29 07:03:37 51°13.677 2°55.923 132.8   60.1 -999
2001-08-29 07:03:41 51°13.677 2°55.923 132.7   70.3 -999
2001-08-29 07:03:45 51°13.677 2°55.923 132.8   318.9 -999
2001-08-29 07:03:51 51°13.677 2°55.923 132.8   36.4 -999
2001-08-29 07:03:57 51°13.677 2°55.923 132.7   25.3 -999
2001-08-29 07:04:01 51°13.677 2°55.923 132.7   27.5 -999
2001-08-29 07:04:07 51°13.677 2°55.923 132.8   37.8 -999
2001-08-29 07:04:11 51°13.677 2°55.923 132.7   28.9 -999
2001-08-29 07:04:17 51°13.677 2°55.923 132.7   359.2 -999
2001-08-29 07:04:21 51°13.677 2°55.923 132.7   280.4 -999
2001-08-29 07:04:27 51°13.677 2°55.923 132.7   262.8 -999
2001-08-29 07:04:31 51°13.677 2°55.923 132.8   250.6 -999
2001-08-29 07:04:37 51°13.677 2°55.923 132.8   257.6 -999
2001-08-29 07:04:41 51°13.677 2°55.923 132.8   267.5 -999
2001-08-29 07:04:47 51°13.677 2°55.922 132.8   304.5 -999
2001-08-29 07:04:51 51°13.677 2°55.923 132.8   103.3 -999
2001-08-29 07:04:57 51°13.677 2°55.923 132 0.1 104.6 -999
2001-08-29 07:05:01 51°13.677 2°55.923 130.5 0.2 88 -999
2001-08-29 07:05:07 51°13.677 2°55.923 128.7 0.1 103.8 -999
2001-08-29 07:05:11 51°13.677 2°55.923 127.7   115.4 -999
2001-08-29 07:05:17 51°13.677 2°55.923 126.7 0.1 162 -999
2001-08-29 07:05:21 51°13.677 2°55.923 125.5 0.1 167 -999
2001-08-29 07:05:27 51°13.677 2°55.924 124.3 0.1 171.3 -999
2001-08-29 07:05:31 51°13.677 2°55.924 123.2 0.1 179 -999
2001-08-29 07:05:37 51°13.676 2°55.924 122 0.1 178.2 -999
2001-08-29 07:05:41 51°13.676 2°55.924 120.7 0.1 175.8 -999
2001-08-29 07:05:47 51°13.676 2°55.924 119.5 0.1 175.1 -999
2001-08-29 07:05:51 51°13.676 2°55.924 118.2 0.1 177.7 -999
2001-08-29 07:05:57 51°13.676 2°55.924 116.7 0.1 178.3 -999
2001-08-29 07:06:01 51°13.676 2°55.924 115.3 0.1 184.7 -999
2001-08-29 07:06:07 51°13.675 2°55.924 113.8 0.1 183.5 -999
2001-08-29 07:06:11 51°13.675 2°55.924 112.5 0.1 187.9 -999
2001-08-29 07:06:17 51°13.675 2°55.924 111 0.1 191.5 -999
2001-08-29 07:06:21 51°13.675 2°55.924 109.7 0.1 187.6 -999
2001-08-29 07:06:27 51°13.675 2°55.924 108.3 0.1 198.5 -999
2001-08-29 07:06:31 51°13.675 2°55.924 107 0.1 221.3 -999
2001-08-29 07:06:37 51°13.675 2°55.924 105.8 0.1 207.2 -999
2001-08-29 07:06:41 51°13.674 2°55.924 105 0.1 183.7 -999
2001-08-29 07:06:45 51°13.674 2°55.924 104.3 0.1 210.9 -999
2001-08-29 07:06:51 51°13.674 2°55.925 103.5 0.1 269 -999
2001-08-29 07:06:57 51°13.674 2°55.924 102.7 0.2 278.7 -999
2001-08-29 07:07:01 51°13.674 2°55.923 102.2 0.5 277.7 -999
2001-08-29 07:07:07 51°13.674 2°55.92 101.8 0.9 279.6 -999
2001-08-29 07:07:11 51°13.674 2°55.917 101.7 1.2 278.5 -999
2001-08-29 07:07:15 51°13.675 2°55.913 101.7 1.6 278.7 8.7
2001-08-29 07:07:21 51°13.675 2°55.907 101.5 2.1 278.7 -999
2001-08-29 07:07:27 51°13.676 2°55.9 101.3 2.5 279.1 -999
2001-08-29 07:07:31 51°13.677 2°55.894 101 3 279 -999
2001-08-29 07:07:37 51°13.678 2°55.885 100.3 3.2 278.8 -999
2001-08-29 07:07:41 51°13.678 2°55.878 100 3.6 277.6 -999
2001-08-29 07:07:45 51°13.679 2°55.871 99.7 3.9 277.2 -999
2001-08-29 07:07:51 51°13.68 2°55.86 99.7 4 277.2 -999
2001-08-29 07:07:57 51°13.681 2°55.85 99.8 3.9 277.1 -999
2001-08-29 07:08:01 51°13.681 2°55.844 99.7 3.8 277.2 -999
2001-08-29 07:08:07 51°13.682 2°55.834 99.5 3.7 277.2 -999
2001-08-29 07:08:11 51°13.683 2°55.828 99.5 3.7 277.3 9.9
2001-08-29 07:08:15 51°13.683 2°55.821 99.5 3.7 277.4 -999
2001-08-29 07:08:21 51°13.684 2°55.812 99.3 3.6 277.7 -999
2001-08-29 07:08:25 51°13.684 2°55.805 99 3.6 278 -999
2001-08-29 07:08:31 51°13.685 2°55.796 98.7 3.6 278.1 -999
2001-08-29 07:08:37 51°13.686 2°55.787 98.2 3.5 278.2 -999
2001-08-29 07:08:41 51°13.687 2°55.781 97.3 3.4 278 -999
2001-08-29 07:08:47 51°13.687 2°55.773 96.5 3.3 277.8 -999
2001-08-29 07:08:51 51°13.688 2°55.767 95.5 3.2 277.6 14.3
2001-08-29 07:08:55 51°13.688 2°55.762 94.5 3.1 277.2 14.6
2001-08-29 07:09:01 51°13.689 2°55.755 93.7 3 276.7 14.6
2001-08-29 07:09:05 51°13.689 2°55.75 92.5 2.8 276.7 14.2
2001-08-29 07:09:11 51°13.69 2°55.744 91 2.5 277.1 14.2
2001-08-29 07:09:15 51°13.69 2°55.742 87.8 1.9 278.8 13.9
2001-08-29 07:09:21 51°13.691 2°55.74 83.5 1.2 285 13.1
2001-08-29 07:09:25 51°13.691 2°55.74 77.8 0.7 304.8 13
2001-08-29 07:09:31 51°13.692 2°55.74 72.5 0.5 346.6 12.8
2001-08-29 07:09:35 51°13.693 2°55.741 65.8 0.9 29.4 13.4
2001-08-29 07:09:41 51°13.696 2°55.744 58 1.2 34.9 13.6
2001-08-29 07:09:45 51°13.698 2°55.746 49.8 1.7 35.3 14.3
2001-08-29 07:09:51 51°13.701 2°55.748 42.7 2 33.4 14.3
2001-08-29 07:09:55 51°13.703 2°55.75 36.5 2 29 14
2001-08-29 07:09:59 51°13.704 2°55.751 32.8 1.9 25.8 14.1
2001-08-29 07:10:05 51°13.706 2°55.752 29.5 1.4 21.2 14.1
2001-08-29 07:10:11 51°13.707 2°55.752 26 1 17 14
2001-08-29 07:10:15 51°13.707 2°55.752 23.2 0.3 357.8 14.1
2001-08-29 07:10:21 51°13.706 2°55.751 21.7 0.2 238.3 14
2001-08-29 07:10:25 51°13.705 2°55.751 20.2 0.7 207.8 14
2001-08-29 07:10:31 51°13.703 2°55.75 18.8 1 204.8 14
2001-08-29 07:10:37 51°13.702 2°55.749 17.5 0.9 204.8 -999
2001-08-29 07:10:41 51°13.702 2°55.748 15 0.5 219.2 -999
2001-08-29 07:10:47 51°13.703 2°55.748 10.7 0.3 315.1 -999
2001-08-29 07:10:51 51°13.705 2°55.747 4.7 0.9 346 -999
2001-08-29 07:10:57 51°13.708 2°55.746 357.8 1.4 348.1 -999
2001-08-29 07:11:01 51°13.71 2°55.745 351 2 346.3 13.7
2001-08-29 07:11:05 51°13.713 2°55.744 346.2 2.4 343.7 13.7
2001-08-29 07:11:11 51°13.718 2°55.741 343.3 2.7 340.9 12.9
2001-08-29 07:11:15 51°13.722 2°55.738 340.2 3.4 337.4 12.3
2001-08-29 07:11:21 51°13.728 2°55.733 336.2 3.8 334.9 11.7
2001-08-29 07:11:25 51°13.733 2°55.729 333.3 4.2 331.6 11.2
2001-08-29 07:11:31 51°13.74 2°55.722 332 4.5 330 11.2
2001-08-29 07:11:35 51°13.745 2°55.718 331.7 4.7 329.1 12
2001-08-29 07:11:41 51°13.752 2°55.711 331.5 4.9 328.9 11.8
2001-08-29 07:11:45 51°13.756 2°55.706 331.2 5.2 328.3 11.3
2001-08-29 07:11:51 51°13.764 2°55.698 331.3 5.3 328.2 11.9
2001-08-29 07:11:55 51°13.769 2°55.693 332 5.5 328.2 11.9
2001-08-29 07:12:01 51°13.777 2°55.685 332.3 5.6 328.4 11.9
2001-08-29 07:12:05 51°13.783 2°55.68 332.5 5.8 328.8 11.8
2001-08-29 07:12:11 51°13.791 2°55.672 332.8 5.9 329.2 11.7
2001-08-29 07:12:15 51°13.797 2°55.667 333.5 6.1 329.8 12
2001-08-29 07:12:21 51°13.806 2°55.659 334.2 6.2 330.4 12
2001-08-29 07:12:25 51°13.812 2°55.653 334.7 6.3 331 12.1
2001-08-29 07:12:29 51°13.818 2°55.648 335.5 6.3 331.5 12
2001-08-29 07:12:35 51°13.828 2°55.64 336.2 6.4 332.4 11.5
2001-08-29 07:12:39 51°13.834 2°55.635 336.3 6.5 332.6 11.3
2001-08-29 07:12:45 51°13.844 2°55.627 336.7 6.6 333 11.9
2001-08-29 07:12:51 51°13.854 2°55.619 336.8 6.7 333.3 11.7
2001-08-29 07:12:55 51°13.861 2°55.613 337 6.8 333.4 10.8
2001-08-29 07:13:01 51°13.871 2°55.605 337 6.8 333.6 11
2001-08-29 07:13:05 51°13.878 2°55.6 337.5 6.9 334 10.6
2001-08-29 07:13:11 51°13.888 2°55.592 338.2 6.9 334.7 11
2001-08-29 07:13:15 51°13.895 2°55.587 338.5 7 335.1 10.8
2001-08-29 07:13:19 51°13.902 2°55.582 338.8 7 335.4 11.1
2001-08-29 07:13:25 51°13.913 2°55.574 339.2 7.1 335.7 11.6
2001-08-29 07:13:31 51°13.924 2°55.566 339.2 7.1 336 11.6
2001-08-29 07:13:35 51°13.931 2°55.561 339.3 7.1 336 11.4
2001-08-29 07:13:39 51°13.939 2°55.556 338.8 7.2 336.2 11.6
2001-08-29 07:13:45 51°13.95 2°55.548 338.7 7.2 336 11.4
2001-08-29 07:13:51 51°13.961 2°55.541 339 7.2 336.2 11.5
2001-08-29 07:13:55 51°13.968 2°55.535 339.3 7.2 336.4 11.5
2001-08-29 07:14:01 51°13.979 2°55.528 339.7 7.2 337 11.5
2001-08-29 07:14:05 51°13.986 2°55.523 340.2 7.3 337.4 11.5
2001-08-29 07:14:11 51°13.998 2°55.516 340.7 7.3 337.6 11.5
2001-08-29 07:14:15 51°14.005 2°55.511 341 7.3 337.7 11.4
2001-08-29 07:14:21 51°14.016 2°55.503 340.2 7.3 337.2 11.5
2001-08-29 07:14:25 51°14.024 2°55.497 339.2 7.3 335.8 11.5
2001-08-29 07:14:31 51°14.035 2°55.489 338.3 7.3 335.1 11.5
2001-08-29 07:14:35 51°14.042 2°55.484 338.7 7.3 335.1 11.5
2001-08-29 07:14:39 51°14.049 2°55.479 339.3 7.3 335.7 11.5
2001-08-29 07:14:45 51°14.061 2°55.471 339.2 7.3 336.4 11.5
2001-08-29 07:14:51 51°14.071 2°55.463 338.5 7.3 336 11.5
2001-08-29 07:14:55 51°14.079 2°55.458 338 7.2 335.6 11.5
2001-08-29 07:15:01 51°14.09 2°55.449 337.2 7.2 335 11.4
2001-08-29 07:15:05 51°14.097 2°55.444 336.7 7.2 334.2 11.5
2001-08-29 07:15:11 51°14.107 2°55.436 336.5 7.2 334 11.4
2001-08-29 07:15:15 51°14.114 2°55.43 336.7 7.1 334.1 11.4
2001-08-29 07:15:19 51°14.121 2°55.425 336.8 7.1 334.2 11.4
2001-08-29 07:15:25 51°14.132 2°55.416 336.8 7.1 334.2 11.4
2001-08-29 07:15:31 51°14.143 2°55.408 336.3 7.2 334.1 11.4
2001-08-29 07:15:35 51°14.15 2°55.402 335.5 7.2 333.4 11.4
2001-08-29 07:15:39 51°14.157 2°55.396 334.8 7.2 332.8 11.3
2001-08-29 07:15:45 51°14.168 2°55.387 334 7.3 332 11.4
2001-08-29 07:15:51 51°14.179 2°55.377 332.7 7.3 331.2 11.4
2001-08-29 07:15:55 51°14.186 2°55.371 332 7.4 330.1 11.4
2001-08-29 07:16:01 51°14.196 2°55.361 331.3 7.4 329.4 11.5
2001-08-29 07:16:05 51°14.203 2°55.353 329.8 7.4 328.1 11.5
2001-08-29 07:16:09 51°14.21 2°55.346 327.5 7.4 326.6 11.5
2001-08-29 07:16:15 51°14.22 2°55.334 325.3 7.4 324.4 11.5
2001-08-29 07:16:19 51°14.226 2°55.326 324.2 7.4 323.2 11.5
2001-08-29 07:16:25 51°14.236 2°55.314 323.5 7.4 321.9 11.6
2001-08-29 07:16:31 51°14.245 2°55.301 322 7.4 320.9 11.5
2001-08-29 07:16:35 51°14.251 2°55.293 320.2 7.4 319.2 11.5
2001-08-29 07:16:41 51°14.26 2°55.279 319 7.4 317.8 11.5
2001-08-29 07:16:45 51°14.266 2°55.27 317.5 7.4 315.9 11.5
2001-08-29 07:16:49 51°14.271 2°55.26 315.5 7.5 314.3 11.5
2001-08-29 07:16:55 51°14.28 2°55.244 313.2 7.7 311.8 11.5
2001-08-29 07:17:01 51°14.289 2°55.227 312.3 8 310.3 11.5
2001-08-29 07:17:05 51°14.295 2°55.216 311.7 8.3 309.6 11.5
2001-08-29 07:17:09 51°14.301 2°55.203 311.2 8.6 309 11.5
2001-08-29 07:17:15 51°14.31 2°55.185 310.7 9 308.3 11.6
2001-08-29 07:17:19 51°14.317 2°55.171 310 9.2 307.6 11.5
2001-08-29 07:17:25 51°14.326 2°55.151 309.5 9.5 307 11.6
2001-08-29 07:17:31 51°14.336 2°55.13 309.3 9.7 306.9 11.6
2001-08-29 07:17:35 51°14.343 2°55.117 309.8 9.8 307 11.5
2001-08-29 07:17:39 51°14.349 2°55.103 310 9.9 307.7 11.3
2001-08-29 07:17:45 51°14.36 2°55.082 311.2 10 309.1 11.4
2001-08-29 07:17:51 51°14.372 2°55.064 313.5 10 312.1 11.6
2001-08-29 07:17:55 51°14.38 2°55.051 316.7 10.2 316.2 11.6
2001-08-29 07:18:01 51°14.394 2°55.034 319.2 10.4 319 11.6
2001-08-29 07:18:05 51°14.404 2°55.022 321.3 10.7 321.7 11.5
2001-08-29 07:18:11 51°14.418 2°55.005 322.3 10.8 322.8 11.5
2001-08-29 07:18:15 51°14.428 2°54.993 323 11 323.7 11.1
2001-08-29 07:18:19 51°14.439 2°54.982 323.5 11.1 324.1 11.1
2001-08-29 07:18:25 51°14.454 2°54.965 324.2 11.3 324.8 11
2001-08-29 07:18:31 51°14.469 2°54.947 324.5 11.4 325 10.9
2001-08-29 07:18:35 51°14.48 2°54.936 324.2 11.4 325 10.9
2001-08-29 07:18:41 51°14.495 2°54.918 324 11.5 324.6 10.9
2001-08-29 07:18:45 51°14.506 2°54.906 323.5 11.5 324.1 10.9
2001-08-29 07:18:51 51°14.521 2°54.887 323 11.5 323.7 10.9
2001-08-29 07:18:55 51°14.532 2°54.875 322.3 11.6 322.9 10.8
2001-08-29 07:19:01 51°14.547 2°54.856 321.5 11.6 322.3 10.8
2001-08-29 07:19:05 51°14.556 2°54.843 320.7 11.5 321.6 10.8
2001-08-29 07:19:11 51°14.571 2°54.824 320.8 11.5 321.1 10.8
2001-08-29 07:19:15 51°14.581 2°54.812 320.8 11.5 321.4 10.8
2001-08-29 07:19:21 51°14.597 2°54.793 321.5 11.5 321.9 10.8
2001-08-29 07:19:25 51°14.607 2°54.781 322.3 11.5 322.7 10.7
2001-08-29 07:19:31 51°14.623 2°54.763 322.8 11.6 323.4 10.7
2001-08-29 07:19:35 51°14.634 2°54.751 323.8 11.6 324.4 10.7
2001-08-29 07:19:39 51°14.644 2°54.74 324.8 11.6 325.1 10.6
2001-08-29 07:19:45 51°14.66 2°54.722 325.2 11.6 325.8 10.6
2001-08-29 07:19:51 51°14.676 2°54.705 325.8 11.6 326.2 10.6
2001-08-29 07:19:55 51°14.687 2°54.694 325.8 11.7 326.7 10.7
2001-08-29 07:19:59 51°14.698 2°54.682 326.2 11.7 326.5 10.7
2001-08-29 07:20:05 51°14.714 2°54.666 326.3 11.7 326.9 10.7
2001-08-29 07:20:11 51°14.73 2°54.649 327 11.7 327 10.8
2001-08-29 07:20:15 51°14.741 2°54.638 326.3 11.7 327.3 10.8
2001-08-29 07:20:21 51°14.757 2°54.62 326 11.7 326.6 10.8
2001-08-29 07:20:25 51°14.768 2°54.609 325.7 11.7 326.6 10.7
2001-08-29 07:20:31 51°14.784 2°54.592 325.8 11.7 326.5 10.6
2001-08-29 07:20:35 51°14.795 2°54.58 325.3 11.7 326.4 10.7
2001-08-29 07:20:41 51°14.811 2°54.563 325.2 11.7 326 10.8
2001-08-29 07:20:45 51°14.821 2°54.551 325 11.7 325.6 10.7
2001-08-29 07:20:51 51°14.837 2°54.533 324.5 11.7 325.3 10.7
2001-08-29 07:20:55 51°14.847 2°54.521 324 11.7 324.7 10.8
2001-08-29 07:21:01 51°14.863 2°54.503 323 11.7 324.4 10.7
2001-08-29 07:21:05 51°14.874 2°54.491 323.3 11.7 323.7 10.7
2001-08-29 07:21:11 51°14.89 2°54.472 322.8 11.7 323.5 10.6
2001-08-29 07:21:15 51°14.9 2°54.459 322.2 11.8 322.7 10.5
2001-08-29 07:21:19 51°14.91 2°54.447 321.3 11.7 322.3 10.4
2001-08-29 07:21:25 51°14.925 2°54.428 322 11.6 322.1 10.3
2001-08-29 07:21:31 51°14.941 2°54.411 324.8 11.5 323.6 10.2
2001-08-29 07:21:35 51°14.952 2°54.4 327.7 11.6 326.8 10.1
2001-08-29 07:21:39 51°14.963 2°54.39 328.8 11.6 328.2 10.1
2001-08-29 07:21:45 51°14.98 2°54.374 328.7 11.6 328.9 10
2001-08-29 07:21:51 51°14.996 2°54.358 329 11.5 328.6 10
2001-08-29 07:21:55 51°15.007 2°54.347 327.8 11.6 328.4 10
2001-08-29 07:22:01 51°15.024 2°54.33 327.2 11.7 327.4 10
2001-08-29 07:22:05 51°15.034 2°54.318 326.7 11.6 326.8 10
2001-08-29 07:22:11 51°15.05 2°54.301 326.3 11.6 326.3 10
2001-08-29 07:22:15 51°15.06 2°54.289 326.3 11.6 326.4 10
2001-08-29 07:22:19 51°15.071 2°54.278 327.7 11.6 327 10.1
2001-08-29 07:22:25 51°15.088 2°54.262 329 11.7 328.6 10.2
2001-08-29 07:22:31 51°15.105 2°54.247 330 11.7 329.3 10.2
2001-08-29 07:22:35 51°15.116 2°54.237 330.3 11.7 330.1 10.3
2001-08-29 07:22:39 51°15.128 2°54.226 330.3 11.8 330 10.3
2001-08-29 07:22:45 51°15.145 2°54.21 330.5 12 330.2 10.4
2001-08-29 07:22:51 51°15.163 2°54.195 330.8 12.1 330.2 10.4
2001-08-29 07:22:55 51°15.175 2°54.184 331.2 12.3 330.6 10.4
2001-08-29 07:23:01 51°15.193 2°54.168 331.7 12.4 330.8 10.5
2001-08-29 07:23:05 51°15.206 2°54.157 331.3 12.7 330.8 10.4
2001-08-29 07:23:09 51°15.218 2°54.145 330.3 12.8 330.1 10.4
2001-08-29 07:23:15 51°15.237 2°54.127 329.5 13 329.2 10.5
2001-08-29 07:23:21 51°15.255 2°54.109 329.2 13.1 328.6 10.6
2001-08-29 07:23:25 51°15.268 2°54.097 328.8 13.2 328.4 10.6
2001-08-29 07:23:31 51°15.287 2°54.078 329.5 13.2 328.4 10.7
2001-08-29 07:23:35 51°15.299 2°54.066 329.2 13.4 328.6 10.7
2001-08-29 07:23:39 51°15.312 2°54.053 329.2 13.4 328.4 10.8
2001-08-29 07:23:45 51°15.331 2°54.035 329.3 13.5 328.4 10.8
2001-08-29 07:23:51 51°15.35 2°54.016 329.2 13.5 328.4 10.8
2001-08-29 07:23:55 51°15.363 2°54.003 329.2 13.6 328.4 10.9
2001-08-29 07:24:01 51°15.382 2°53.984 329 13.6 328.3 11
2001-08-29 07:24:05 51°15.395 2°53.972 329.2 13.6 328.4 11
2001-08-29 07:24:11 51°15.414 2°53.953 329.5 13.5 328.5 11.1
2001-08-29 07:24:15 51°15.427 2°53.941 329.8 13.5 328.8 11.2
2001-08-29 07:24:19 51°15.44 2°53.929 330.7 13.6 329.3 11.3
2001-08-29 07:24:25 51°15.46 2°53.911 331.3 13.6 330.1 11.3
2001-08-29 07:24:31 51°15.48 2°53.894 332 13.6 330.6 11.5
2001-08-29 07:24:35 51°15.492 2°53.882 331.7 13.4 330.7 11.5
2001-08-29 07:24:41 51°15.512 2°53.865 331.8 13.4 330.6 11.6
2001-08-29 07:24:45 51°15.525 2°53.853 332.7 13.4 331.1 11.7
2001-08-29 07:24:49 51°15.538 2°53.842 332.7 13.5 331.3 11.8
2001-08-29 07:24:55 51°15.558 2°53.825 332.2 13.5 331.2 11.9
2001-08-29 07:25:01 51°15.577 2°53.807 331.8 13.5 330.9 11.9
2001-08-29 07:25:05 51°15.59 2°53.795 332 13.4 330.5 12
2001-08-29 07:25:11 51°15.61 2°53.778 331.7 13.4 330.7 12.1
2001-08-29 07:25:15 51°15.623 2°53.766 332.2 13.4 330.5 12.1
2001-08-29 07:25:19 51°15.636 2°53.755 332.5 13.4 331.1 12.1
2001-08-29 07:25:25 51°15.656 2°53.738 333.5 13.5 331.5 12.3
2001-08-29 07:25:31 51°15.675 2°53.721 333.7 13.5 332 12.4
2001-08-29 07:25:35 51°15.689 2°53.71 333.7 13.5 332.3 12.4
2001-08-29 07:25:41 51°15.708 2°53.693 333.5 13.5 332 12.5
2001-08-29 07:25:45 51°15.722 2°53.682 333 13.5 331.6 12.5
2001-08-29 07:25:49 51°15.735 2°53.67 332.8 13.5 331.4 12.6
2001-08-29 07:25:55 51°15.754 2°53.653 333 13.5 331.2 12.6
2001-08-29 07:25:59 51°15.768 2°53.642 333 13.5 331.3 12.7
2001-08-29 07:26:05 51°15.787 2°53.625 333.3 13.5 331.5 12.7
2001-08-29 07:26:09 51°15.8 2°53.614 333.3 13.4 332.1 12.8
2001-08-29 07:26:15 51°15.82 2°53.597 333.7 13.4 332.3 12.8
2001-08-29 07:26:19 51°15.833 2°53.587 333.3 13.4 332.8 12.8
2001-08-29 07:26:25 51°15.853 2°53.571 333.2 13.3 332.9 12.8
2001-08-29 07:26:31 51°15.873 2°53.555 333.2 13.4 333.1 12.9
2001-08-29 07:26:35 51°15.886 2°53.544 333.3 13.3 333.4 13.1
2001-08-29 07:26:41 51°15.906 2°53.529 333.8 13.3 333.8 13.1
2001-08-29 07:26:45 51°15.919 2°53.519 333.7 13.3 334.2 13.2
2001-08-29 07:26:51 51°15.939 2°53.504 334 13.3 334.2 13.2
2001-08-29 07:26:55 51°15.952 2°53.494 333.5 13.2 334.2 13.2
2001-08-29 07:26:59 51°15.965 2°53.483 332.5 13.2 333.3 13.2
2001-08-29 07:27:05 51°15.985 2°53.466 331 13.2 332.3 13.2
2001-08-29 07:27:09 51°15.997 2°53.455 330.7 13.2 331.4 13.3
2001-08-29 07:27:15 51°16.017 2°53.438 330.8 13.2 331.1 13.4
2001-08-29 07:27:19 51°16.03 2°53.427 331.7 13.2 331.4 13.4
2001-08-29 07:27:25 51°16.05 2°53.411 332.7 13.3 332.4 13.4
2001-08-29 07:27:31 51°16.069 2°53.395 333.3 13.3 333.3 13.4
2001-08-29 07:27:35 51°16.083 2°53.385 334.3 13.3 334.1 13.5
2001-08-29 07:27:39 51°16.096 2°53.376 335.2 13.3 334.9 13.5
2001-08-29 07:27:45 51°16.116 2°53.361 335.2 13.4 335.5 13.6
2001-08-29 07:27:51 51°16.137 2°53.346 335.5 13.4 335.6 13.5
2001-08-29 07:27:55 51°16.15 2°53.337 335.7 13.4 335.8 13.6
2001-08-29 07:28:01 51°16.171 2°53.322 335.8 13.4 335.9 13.6
2001-08-29 07:28:05 51°16.184 2°53.312 335.5 13.4 335.7 13.7
2001-08-29 07:28:11 51°16.205 2°53.298 335.5 13.4 335.6 13.6
2001-08-29 07:28:15 51°16.218 2°53.288 336 13.5 335.8 13.7
2001-08-29 07:28:21 51°16.239 2°53.274 335.8 13.5 336.2 13.7
2001-08-29 07:28:25 51°16.252 2°53.264 336.3 13.5 336.2 13.7
2001-08-29 07:28:31 51°16.273 2°53.25 335.8 13.4 336 13.8
2001-08-29 07:28:35 51°16.286 2°53.239 334.7 13.4 335 13.8
2001-08-29 07:28:41 51°16.306 2°53.224 334 13.4 334.6 13.8
2001-08-29 07:28:45 51°16.32 2°53.214 334.2 13.4 334.4 13.8
2001-08-29 07:28:51 51°16.34 2°53.199 334.2 13.3 334.5 13.7
2001-08-29 07:28:55 51°16.353 2°53.189 334.5 13.3 334.9 13.8
2001-08-29 07:28:59 51°16.367 2°53.179 334.3 13.3 334.9 13.7
2001-08-29 07:29:05 51°16.386 2°53.163 333.7 13.3 334.4 13.7
2001-08-29 07:29:11 51°16.406 2°53.148 333.3 13.3 333.9 13.7
2001-08-29 07:29:15 51°16.42 2°53.137 333.2 13.3 333.6 13.7
2001-08-29 07:29:19 51°16.433 2°53.127 333 13.3 333.5 13.6
2001-08-29 07:29:25 51°16.453 2°53.111 333.3 13.3 333.5 13.6
2001-08-29 07:29:31 51°16.473 2°53.096 333.5 13.4 333.8 13.6
2001-08-29 07:29:35 51°16.486 2°53.085 333.5 13.4 333.9 13.6
2001-08-29 07:29:41 51°16.506 2°53.069 333.3 13.4 333.8 13.5
2001-08-29 07:29:45 51°16.519 2°53.059 333.3 13.4 333.7 13.3
2001-08-29 07:29:51 51°16.539 2°53.043 333.2 13.4 333.6 13.3
2001-08-29 07:29:55 51°16.552 2°53.032 332.7 13.3 333.2 13.2
2001-08-29 07:29:59 51°16.565 2°53.022 332.5 13.3 332.9 13.2
2001-08-29 07:30:05 51°16.585 2°53.005 332 13.3 332.4 13.1
2001-08-29 07:30:11 51°16.605 2°52.989 332.2 13.3 332.3 13
2001-08-29 07:30:15 51°16.617 2°52.978 332 13.3 332.1 12.9
2001-08-29 07:30:19 51°16.631 2°52.967 331.7 13.3 331.9 12.9
2001-08-29 07:30:25 51°16.65 2°52.95 331.5 13.4 331.5 12.9
2001-08-29 07:30:31 51°16.67 2°52.932 331 13.4 331 12.8
2001-08-29 07:30:35 51°16.682 2°52.921 330.5 13.4 330.7 12.7
2001-08-29 07:30:41 51°16.702 2°52.904 331 13.4 330.5 12.5
2001-08-29 07:30:45 51°16.715 2°52.892 331.2 13.3 331.2 12.5
2001-08-29 07:30:51 51°16.734 2°52.876 332.2 13.3 331.6 12.3
2001-08-29 07:30:55 51°16.748 2°52.865 332.3 13.3 332.4 12
2001-08-29 07:30:59 51°16.761 2°52.855 333.3 13.3 333 11.7
2001-08-29 07:31:05 51°16.78 2°52.839 334 13.2 333.9 11.1
2001-08-29 07:31:09 51°16.793 2°52.83 334.8 13.1 334.4 10.9
2001-08-29 07:31:15 51°16.813 2°52.815 334.5 13.1 334.5 11
2001-08-29 07:31:19 51°16.826 2°52.805 334.5 13.1 334.4 11
2001-08-29 07:31:25 51°16.845 2°52.789 334.5 13.1 334.2 11
2001-08-29 07:31:31 51°16.865 2°52.774 334.2 13.1 334.1 10.8
2001-08-29 07:31:35 51°16.878 2°52.764 334.2 13.2 334.1 10.8
2001-08-29 07:31:39 51°16.891 2°52.754 334.2 13.2 334 10.8
2001-08-29 07:31:45 51°16.911 2°52.738 334.2 13.2 334.1 10.7
2001-08-29 07:31:51 51°16.931 2°52.723 334.5 13.2 334.2 10.9
2001-08-29 07:31:55 51°16.944 2°52.713 334.8 13.3 334.6 11
2001-08-29 07:32:01 51°16.964 2°52.699 335.3 13.3 334.9 11.1
2001-08-29 07:32:05 51°16.978 2°52.689 335.8 13.3 335.5 11.4
2001-08-29 07:32:11 51°16.998 2°52.674 335.7 13.3 335.6 11.5
2001-08-29 07:32:15 51°17.011 2°52.664 335.7 13.4 335.6 11.8
2001-08-29 07:32:19 51°17.025 2°52.655 336 13.4 335.7 11.9
2001-08-29 07:32:25 51°17.045 2°52.641 336.5 13.4 336.3 11.6
2001-08-29 07:32:31 51°17.066 2°52.627 336.7 13.4 336.5 11.2
2001-08-29 07:32:35 51°17.079 2°52.617 336.3 13.3 336.5 11
2001-08-29 07:32:41 51°17.099 2°52.603 336.3 13.2 336.3 11
2001-08-29 07:32:45 51°17.112 2°52.594 336.2 13.1 336.3 11
2001-08-29 07:32:51 51°17.133 2°52.58 335.8 13.1 336.2 11
2001-08-29 07:32:55 51°17.146 2°52.57 335.5 13.2 335.6 11.1
2001-08-29 07:33:01 51°17.166 2°52.555 334.7 13.2 335.1 11.2
2001-08-29 07:33:05 51°17.179 2°52.544 333.7 13.2 333.8 11.3
2001-08-29 07:33:11 51°17.198 2°52.528 332.5 13.2 333.1 11.3
2001-08-29 07:33:15 51°17.211 2°52.517 331.8 13.2 331.9 11.4
2001-08-29 07:33:19 51°17.224 2°52.505 331.2 13.2 331.4 11.4
2001-08-29 07:33:25 51°17.243 2°52.488 330.7 13.3 330.6 11.5
2001-08-29 07:33:31 51°17.262 2°52.47 330 13.3 330.2 11.6
2001-08-29 07:33:35 51°17.275 2°52.458 329.8 13.2 329.8 11.6
2001-08-29 07:33:41 51°17.294 2°52.441 329.2 13.2 329.6 11.7